X  Lukk Metar værinformasjon om luftfart     ENRY Moss Airport, Rygge
Temperatur
7°C Temperatur
6°C Duggpunkt
93% Luftfuktighet



Vind
3 M/S
6 MPT
10 KM/T
5 KNP



120°
ØSØ
Nåværende forhold

For det meste Overskyet For det meste Overskyet
Trykk 1002.92 (hPa) - 29.62 (inHg)
Sikt 0 (mil) - 0 (km)
Flyplass
Flyplass-kode ENRY

Plassering: Moss Airport, Rygge
Avstand: 11 (km)

Metar:
ENRY 241650Z AUTO 12005KT 9999NDV BKN080/// OVC100/// 07/06 Q1003

Tid: 24-10-2020 18:50 CEST